createdAt,value
2019-05-07T00:02:07.003Z,7.23
2019-05-07T00:04:38.663Z,7.87
2019-05-07T00:07:13.022Z,7.83
2019-05-07T00:09:45.156Z,7.63
2019-05-07T00:12:16.936Z,7.07
2019-05-07T00:14:58.996Z,7.70
2019-05-07T00:17:22.943Z,6.85
2019-05-07T00:19:54.756Z,7.55
2019-05-07T00:22:26.273Z,6.97
2019-05-07T00:24:57.928Z,6.93
2019-05-07T00:27:31.925Z,6.93
2019-05-07T00:30:03.776Z,6.87
2019-05-07T00:32:35.850Z,6.97
2019-05-07T00:35:09.188Z,6.70
2019-05-07T00:37:52.353Z,6.93
2019-05-07T00:40:45.701Z,6.95
2019-05-07T00:43:22.654Z,6.62
2019-05-07T00:45:57.350Z,7.17
2019-05-07T00:48:28.952Z,6.80
2019-05-07T00:51:22.479Z,7.23
2019-05-07T00:53:53.847Z,6.87
2019-05-07T00:56:25.534Z,7.40
2019-05-07T00:58:57.525Z,7.27
2019-05-07T01:01:29.393Z,7.27
2019-05-07T01:04:02.670Z,7.03
2019-05-07T01:06:34.660Z,6.30
2019-05-07T01:09:07.750Z,6.67
2019-05-07T01:11:39.784Z,6.70
2019-05-07T01:14:12.345Z,6.77
2019-05-07T01:16:44.398Z,7.50
2019-05-07T01:19:16.567Z,6.55
2019-05-07T01:21:49.533Z,6.50
2019-05-07T01:24:23.252Z,6.35
2019-05-07T01:26:54.753Z,6.57
2019-05-07T01:29:26.308Z,6.70
2019-05-07T01:32:04.331Z,6.13
2019-05-07T01:35:02.471Z,6.57
2019-05-07T01:37:34.506Z,6.73
2019-05-07T01:40:06.355Z,6.63
2019-05-07T01:42:38.111Z,7.13
2019-05-07T01:45:12.880Z,6.60
2019-05-07T01:47:44.178Z,6.97
2019-05-07T01:50:16.395Z,6.43
2019-05-07T01:52:49.279Z,6.57
2019-05-07T01:55:22.596Z,6.83
2019-05-07T01:57:56.119Z,6.67
2019-05-07T02:00:27.885Z,6.40
2019-05-07T02:03:06.348Z,6.57
2019-05-07T02:05:47.607Z,6.50
2019-05-07T02:08:39.162Z,5.83
2019-05-07T02:11:12.856Z,7.00
2019-05-07T02:13:46.371Z,6.13
2019-05-07T02:16:18.056Z,6.57
2019-05-07T02:18:52.672Z,6.40
2019-05-07T02:21:24.321Z,6.20
2019-05-07T02:23:58.429Z,5.90
2019-05-07T02:26:32.178Z,6.23
2019-05-07T02:29:03.731Z,6.07
2019-05-07T02:31:35.540Z,6.10
2019-05-07T02:34:07.419Z,5.87
2019-05-07T02:36:39.516Z,5.67
2019-05-07T02:39:17.548Z,5.73
2019-05-07T02:41:49.298Z,6.33
2019-05-07T02:44:23.239Z,5.80
2019-05-07T02:47:12.903Z,5.40
2019-05-07T02:49:53.502Z,6.00
2019-05-07T02:52:43.918Z,5.73
2019-05-07T02:55:23.168Z,5.80
2019-05-07T02:57:55.371Z,5.80
2019-05-07T03:00:27.781Z,5.90
2019-05-07T03:02:59.702Z,5.87
2019-05-07T03:05:34.749Z,5.93
2019-05-07T03:08:06.014Z,6.07
2019-05-07T03:10:38.025Z,5.67
2019-05-07T03:13:13.434Z,5.35
2019-05-07T03:15:44.091Z,6.30
2019-05-07T03:18:18.950Z,6.07
2019-05-07T03:20:59.286Z,6.30
2019-05-07T03:23:38.102Z,6.08
2019-05-07T03:26:26.875Z,6.57
2019-05-07T03:29:03.666Z,5.73
2019-05-07T03:31:56.111Z,6.80
2019-05-07T03:34:46.733Z,6.03
2019-05-07T03:37:23.224Z,6.57
2019-05-07T03:39:54.286Z,6.47
2019-05-07T03:42:26.179Z,6.40
2019-05-07T03:45:23.094Z,6.17
2019-05-07T03:48:04.281Z,6.70
2019-05-07T03:50:36.477Z,6.10
2019-05-07T03:53:08.384Z,5.90
2019-05-07T03:55:39.981Z,6.60
2019-05-07T03:58:14.541Z,6.13
2019-05-07T04:00:45.947Z,6.43
2019-05-07T04:03:19.778Z,6.47
2019-05-07T04:05:53.189Z,5.87
2019-05-07T04:08:24.497Z,6.60
2019-05-07T04:10:56.203Z,6.17
2019-05-07T04:13:28.100Z,6.37
2019-05-07T04:16:03.648Z,6.03
2019-05-07T04:18:34.121Z,6.33
2019-05-07T04:21:05.823Z,5.83
2019-05-07T04:23:37.543Z,5.67
2019-05-07T04:26:24.536Z,5.60
2019-05-07T04:29:04.867Z,6.00
2019-05-07T04:31:38.777Z,5.30
2019-05-07T04:34:18.662Z,5.63
2019-05-07T04:36:53.451Z,5.63
2019-05-07T04:39:24.424Z,5.40
2019-05-07T04:41:55.997Z,5.93
2019-05-07T04:44:28.764Z,5.80
2019-05-07T04:47:00.448Z,5.50
2019-05-07T04:49:33.383Z,5.67
2019-05-07T04:52:15.308Z,5.73
2019-05-07T04:54:47.359Z,5.43
2019-05-07T04:57:28.318Z,5.40
2019-05-07T05:00:03.395Z,5.00
2019-05-07T05:03:04.056Z,5.70
2019-05-07T05:05:35.684Z,5.50
2019-05-07T05:08:07.515Z,5.30
2019-05-07T05:10:39.179Z,5.43
2019-05-07T05:13:12.897Z,5.60
2019-05-07T05:15:44.953Z,5.87
2019-05-07T05:18:16.657Z,8.03
2019-05-07T05:21:02.881Z,9.83
2019-05-07T05:23:45.633Z,13.13
2019-05-07T05:26:17.275Z,7.30
2019-05-07T05:28:49.120Z,6.20
2019-05-07T05:31:22.299Z,5.90
2019-05-07T05:33:54.248Z,5.90
2019-05-07T05:36:25.969Z,6.00
2019-05-07T05:38:57.925Z,5.73
2019-05-07T05:41:31.258Z,6.20
2019-05-07T05:44:14.563Z,5.70
2019-05-07T05:46:46.401Z,6.30
2019-05-07T05:49:18.714Z,6.03
2019-05-07T05:52:12.543Z,5.77
2019-05-07T05:54:54.816Z,6.17
2019-05-07T05:57:36.899Z,6.07
2019-05-07T06:00:27.864Z,6.10
2019-05-07T06:03:27.651Z,5.87
2019-05-07T06:06:06.685Z,5.90
2019-05-07T06:08:44.626Z,6.53
2019-05-07T06:11:35.534Z,6.90
2019-05-07T06:14:15.298Z,6.83
2019-05-07T06:16:57.238Z,6.43
2019-05-07T06:19:37.457Z,7.37
2019-05-07T06:22:27.450Z,5.17
2019-05-07T06:25:06.535Z,4.90
2019-05-07T06:27:38.552Z,5.47
2019-05-07T06:30:12.086Z,4.75
2019-05-07T06:32:43.997Z,5.20
2019-05-07T06:35:15.907Z,4.50
2019-05-07T06:37:48.169Z,4.73
2019-05-07T06:40:51.904Z,4.90
2019-05-07T06:43:42.051Z,4.27
2019-05-07T06:46:13.738Z,4.43
2019-05-07T06:48:46.431Z,5.10
2019-05-07T06:51:18.250Z,4.97
2019-05-07T06:53:51.873Z,4.63
2019-05-07T06:56:23.600Z,4.58
2019-05-07T06:59:02.241Z,5.17
2019-05-07T07:01:52.962Z,5.57
2019-05-07T07:04:33.201Z,5.60
2019-05-07T07:07:23.974Z,5.30
2019-05-07T07:09:51.959Z,5.07
2019-05-07T07:12:26.306Z,4.92
2019-05-07T07:14:58.302Z,4.30
2019-05-07T07:17:30.003Z,4.90
2019-05-07T07:20:02.286Z,4.97
2019-05-07T07:22:34.305Z,4.40
2019-05-07T07:25:06.765Z,4.37
2019-05-07T07:27:38.575Z,5.10
2019-05-07T07:30:28.308Z,5.40
2019-05-07T07:33:02.901Z,5.17
2019-05-07T07:35:34.807Z,4.30
2019-05-07T07:38:25.561Z,4.97
2019-05-07T07:41:03.006Z,5.10
2019-05-07T07:43:35.433Z,4.50
2019-05-07T07:46:07.585Z,5.27
2019-05-07T07:48:39.493Z,6.13
2019-05-07T07:51:13.513Z,5.47
2019-05-07T07:53:44.803Z,5.07
2019-05-07T07:56:50.114Z,3.92
2019-05-07T07:59:33.084Z,4.20
2019-05-07T08:02:12.896Z,3.98
2019-05-07T08:04:44.619Z,4.30
2019-05-07T08:07:16.308Z,4.23
2019-05-07T08:09:48.055Z,4.33
2019-05-07T08:12:21.509Z,5.00
2019-05-07T08:14:53.329Z,4.87
2019-05-07T08:17:25.016Z,5.17
2019-05-07T08:19:56.810Z,4.63
2019-05-07T08:22:28.784Z,4.17
2019-05-07T08:25:01.931Z,4.37
2019-05-07T08:27:33.819Z,4.33
2019-05-07T08:30:07.047Z,4.13
2019-05-07T08:32:56.683Z,4.27
2019-05-07T08:35:47.669Z,4.53
2019-05-07T08:38:21.810Z,4.13
2019-05-07T08:40:52.992Z,4.12
2019-05-07T08:43:25.026Z,4.77
2019-05-07T08:46:22.337Z,4.53
2019-05-07T08:48:55.203Z,4.07
2019-05-07T08:51:26.942Z,4.43
2019-05-07T08:54:07.586Z,4.60
2019-05-07T08:56:39.738Z,4.10
2019-05-07T08:59:12.391Z,4.53
2019-05-07T09:01:44.343Z,4.50
2019-05-07T09:04:15.892Z,3.83
2019-05-07T09:06:49.041Z,4.47
2019-05-07T09:09:22.184Z,4.95
2019-05-07T09:11:54.080Z,4.87
2019-05-07T09:14:26.327Z,4.70
2019-05-07T09:16:58.106Z,4.47
2019-05-07T09:19:32.214Z,4.20
2019-05-07T09:22:06.284Z,4.35
2019-05-07T09:24:38.169Z,3.73
2019-05-07T09:27:30.057Z,4.40
2019-05-07T09:30:19.448Z,3.93
2019-05-07T09:33:14.766Z,3.70
2019-05-07T09:35:52.839Z,3.57
2019-05-07T09:38:24.989Z,3.43
2019-05-07T09:40:57.210Z,3.50
2019-05-07T09:43:28.835Z,3.67
2019-05-07T09:46:02.708Z,3.37
2019-05-07T09:48:34.336Z,3.13
2019-05-07T09:51:06.102Z,3.30
2019-05-07T09:53:37.960Z,3.30
2019-05-07T09:56:12.254Z,3.00
2019-05-07T09:58:43.699Z,3.00
2019-05-07T10:01:18.175Z,2.87
2019-05-07T10:03:51.851Z,2.80
2019-05-07T10:06:23.693Z,2.80
2019-05-07T10:08:55.420Z,3.10
2019-05-07T10:11:33.717Z,3.30
2019-05-07T10:14:09.246Z,2.90
2019-05-07T10:16:47.783Z,2.93
2019-05-07T10:19:22.104Z,3.05
2019-05-07T10:21:53.588Z,2.53
2019-05-07T10:24:25.484Z,2.50
2019-05-07T10:26:57.118Z,2.43
2019-05-07T10:29:29.255Z,2.67
2019-05-07T10:32:02.214Z,2.63
2019-05-07T10:34:34.166Z,2.57
2019-05-07T10:37:06.289Z,2.83
2019-05-07T10:39:39.005Z,2.10
2019-05-07T10:42:13.218Z,2.12
2019-05-07T10:44:52.544Z,2.10
2019-05-07T10:47:49.060Z,2.30
2019-05-07T10:50:35.343Z,2.30
2019-05-07T10:52:59.138Z,1.60
2019-05-07T10:55:32.702Z,2.25
2019-05-07T10:58:04.289Z,2.23
2019-05-07T11:00:36.908Z,2.27
2019-05-07T11:03:08.714Z,2.30
2019-05-07T11:05:41.864Z,2.43
2019-05-07T11:08:13.676Z,2.40
2019-05-07T11:10:46.596Z,2.50
2019-05-07T11:13:18.417Z,2.55
2019-05-07T11:15:52.969Z,2.70
2019-05-07T11:18:43.637Z,2.80
2019-05-07T11:21:17.701Z,2.43
2019-05-07T11:23:52.101Z,2.90
2019-05-07T11:26:23.446Z,2.50
2019-05-07T11:28:55.412Z,2.97
2019-05-07T11:31:27.536Z,2.87
2019-05-07T11:33:59.823Z,2.90
2019-05-07T11:36:34.367Z,3.10
2019-05-07T11:39:07.709Z,3.03
2019-05-07T11:41:57.075Z,3.10
2019-05-07T11:44:32.094Z,2.50
2019-05-07T11:47:28.692Z,2.43
2019-05-07T11:50:32.977Z,2.53
2019-05-07T11:53:07.150Z,2.57
2019-05-07T11:55:38.883Z,2.70
2019-05-07T11:58:12.855Z,2.72
2019-05-07T12:01:04.817Z,2.80
2019-05-07T12:03:36.907Z,3.50
2019-05-07T12:06:08.733Z,3.23
2019-05-07T12:08:48.078Z,3.20
2019-05-07T12:11:15.046Z,3.10
2019-05-07T12:13:46.568Z,5.90
2019-05-07T12:16:19.527Z,2.90
2019-05-07T12:18:52.450Z,3.00
2019-05-07T12:21:25.058Z,3.50
2019-05-07T12:23:56.687Z,3.30
2019-05-07T12:26:28.788Z,2.60
2019-05-07T12:29:00.574Z,2.80
2019-05-07T12:31:47.234Z,3.10
2019-05-07T12:34:23.348Z,2.80
2019-05-07T12:36:55.233Z,3.07
2019-05-07T12:39:27.099Z,3.30
2019-05-07T12:41:59.007Z,3.17
2019-05-07T12:44:33.725Z,2.95
2019-05-07T12:47:06.295Z,3.05
2019-05-07T12:49:37.829Z,3.50
2019-05-07T12:52:22.646Z,3.10
2019-05-07T12:55:12.887Z,3.77
2019-05-07T12:57:44.773Z,3.50
2019-05-07T13:00:34.943Z,2.75
2019-05-07T13:03:21.816Z,2.67
2019-05-07T13:05:54.586Z,2.80
2019-05-07T13:08:26.363Z,2.60
2019-05-07T13:10:57.973Z,2.47
2019-05-07T13:13:31.835Z,3.10
2019-05-07T13:16:04.043Z,3.03
2019-05-07T13:18:35.734Z,3.57
2019-05-07T13:21:07.349Z,3.07
2019-05-07T13:23:39.033Z,2.77
2019-05-07T13:26:10.533Z,3.30
2019-05-07T13:28:44.348Z,3.30
2019-05-07T13:31:17.662Z,3.13
2019-05-07T13:33:52.411Z,3.33
2019-05-07T13:36:25.403Z,3.53
2019-05-07T13:39:23.347Z,3.10
2019-05-07T13:42:04.703Z,3.50
2019-05-07T13:44:52.584Z,3.43
2019-05-07T13:47:29.893Z,3.60
2019-05-07T13:50:02.769Z,4.17
2019-05-07T13:52:35.191Z,4.07
2019-05-07T13:55:08.331Z,4.00
2019-05-07T13:57:41.961Z,3.73
2019-05-07T14:00:21.901Z,4.25
2019-05-07T14:02:55.528Z,4.20
2019-05-07T14:05:29.406Z,4.00
2019-05-07T14:08:04.337Z,4.80
2019-05-07T14:10:35.135Z,4.12
2019-05-07T14:13:12.757Z,4.45
2019-05-07T14:15:42.982Z,5.07
2019-05-07T14:18:14.750Z,5.00
2019-05-07T14:20:46.302Z,4.53
2019-05-07T14:23:17.862Z,4.00
2019-05-07T14:25:49.638Z,4.00
2019-05-07T14:28:23.563Z,3.47
2019-05-07T14:30:56.298Z,3.73
2019-05-07T14:33:53.924Z,4.00
2019-05-07T14:36:32.074Z,4.22
2019-05-07T14:39:06.613Z,4.03
2019-05-07T14:41:38.629Z,3.93
2019-05-07T14:44:13.445Z,3.63
2019-05-07T14:46:51.526Z,3.70
2019-05-07T14:59:13.873Z,4.37
2019-05-07T15:01:45.869Z,4.40
2019-05-07T15:04:18.401Z,5.05
2019-05-07T15:06:51.948Z,4.30
2019-05-07T15:09:24.277Z,4.40
2019-05-07T15:11:56.535Z,4.70
2019-05-07T15:14:28.247Z,4.47
2019-05-07T15:17:07.147Z,4.73
2019-05-07T15:19:38.787Z,4.40
2019-05-07T15:22:45.416Z,4.42
2019-05-07T15:25:07.094Z,4.40
2019-05-07T15:27:39.003Z,4.60
2019-05-07T15:30:11.805Z,4.20
2019-05-07T15:32:43.739Z,4.40
2019-05-07T15:35:17.076Z,4.33
2019-05-07T15:37:49.336Z,4.27
2019-05-07T15:40:22.543Z,4.73
2019-05-07T15:42:54.675Z,4.73
2019-05-07T15:45:26.491Z,4.40
2019-05-07T15:47:58.771Z,4.70
2019-05-07T15:50:32.202Z,4.77
2019-05-07T15:53:25.458Z,4.97
2019-05-07T15:55:57.324Z,4.77
2019-05-07T15:58:29.057Z,5.07
2019-05-07T16:01:02.200Z,4.80
2019-05-07T16:03:37.810Z,4.63
2019-05-07T16:06:09.401Z,4.63
2019-05-07T16:08:49.089Z,4.47
2019-05-07T16:11:19.972Z,4.57
2019-05-07T16:14:09.206Z,4.90
2019-05-07T16:16:44.306Z,4.70
2019-05-07T16:19:27.063Z,4.97
2019-05-07T16:22:03.805Z,5.03
2019-05-07T16:24:36.063Z,4.90
2019-05-07T16:27:08.215Z,5.07
2019-05-07T16:29:41.930Z,5.00
2019-05-07T16:32:13.790Z,5.43
2019-05-07T16:34:45.779Z,4.97
2019-05-07T16:37:17.626Z,5.40
2019-05-07T16:39:49.708Z,5.60
2019-05-07T16:42:22.161Z,5.08
2019-05-07T16:44:53.919Z,5.50
2019-05-07T16:47:26.043Z,5.00
2019-05-07T16:49:57.724Z,5.20
2019-05-07T16:52:29.594Z,5.10
2019-05-07T16:55:02.971Z,5.07
2019-05-07T16:57:54.402Z,4.70
2019-05-07T17:00:39.421Z,5.60
2019-05-07T17:03:16.602Z,5.50
2019-05-07T17:05:48.447Z,5.30
2019-05-07T17:08:39.926Z,5.90
2019-05-07T17:11:12.124Z,6.03
2019-05-07T17:13:43.878Z,6.17
2019-05-07T17:16:15.762Z,6.55
2019-05-07T17:18:47.676Z,6.77
2019-05-07T17:21:21.620Z,7.07
2019-05-07T17:23:52.935Z,6.80
2019-05-07T17:26:24.532Z,6.87
2019-05-07T17:28:56.361Z,7.50
2019-05-07T17:31:28.808Z,8.57
2019-05-07T17:34:02.286Z,7.93
2019-05-07T17:36:34.511Z,8.97
2019-05-07T17:39:09.311Z,8.67
2019-05-07T17:41:42.885Z,7.23
2019-05-07T17:44:15.195Z,8.88
2019-05-07T17:46:46.873Z,7.57
2019-05-07T17:49:18.873Z,8.63
2019-05-07T17:51:52.586Z,8.33
2019-05-07T17:54:24.572Z,7.50
2019-05-07T17:56:56.180Z,7.07
2019-05-07T17:59:29.214Z,6.73
2019-05-07T18:02:29.665Z,7.60
2019-05-07T18:05:02.950Z,8.10
2019-05-07T18:07:36.918Z,7.27
2019-05-07T18:10:09.820Z,7.27
2019-05-07T18:12:42.559Z,7.25
2019-05-07T18:15:14.477Z,9.47
2019-05-07T18:18:03.010Z,9.60
2019-05-07T18:20:35.577Z,8.90
2019-05-07T18:23:10.256Z,9.37
2019-05-07T18:25:42.693Z,9.07
2019-05-07T18:28:16.238Z,9.35
2019-05-07T18:30:49.122Z,9.53
2019-05-07T18:33:29.098Z,10.25
2019-05-07T18:36:02.677Z,9.85
2019-05-07T18:38:34.560Z,8.90
2019-05-07T18:41:06.565Z,9.43
2019-05-07T18:43:38.279Z,9.77
2019-05-07T18:46:10.083Z,9.57
2019-05-07T18:48:42.633Z,10.70
2019-05-07T18:51:14.570Z,10.37
2019-05-07T18:53:46.544Z,10.07
2019-05-07T18:56:19.222Z,10.50
2019-05-07T18:58:52.091Z,12.27
2019-05-07T19:01:25.912Z,13.63
2019-05-07T19:03:58.279Z,17.13
2019-05-07T19:06:31.793Z,15.67
2019-05-07T19:09:05.616Z,16.23
2019-05-07T19:11:39.376Z,22.57
2019-05-07T19:14:13.212Z,21.15
2019-05-07T19:16:44.568Z,14.27
2019-05-07T19:19:17.595Z,13.93
2019-05-07T19:21:49.665Z,13.05
2019-05-07T19:24:25.666Z,13.00
2019-05-07T19:26:55.588Z,13.63
2019-05-07T19:29:27.701Z,13.97
2019-05-07T19:31:59.527Z,14.43
2019-05-07T19:34:32.492Z,15.07
2019-05-07T19:37:05.115Z,14.13
2019-05-07T19:39:36.915Z,16.35
2019-05-07T19:42:08.969Z,15.83
2019-05-07T19:44:43.172Z,15.50
2019-05-07T19:47:15.096Z,16.55
2019-05-07T19:49:47.182Z,17.03
2019-05-07T19:52:19.326Z,15.50
2019-05-07T19:55:01.232Z,16.10
2019-05-07T19:57:29.556Z,17.37
2019-05-07T20:00:01.290Z,18.27
2019-05-07T20:02:39.651Z,18.40
2019-05-07T20:05:12.109Z,19.05
2019-05-07T20:07:44.348Z,19.27
2019-05-07T20:10:20.490Z,20.07
2019-05-07T20:12:52.447Z,21.00
2019-05-07T20:15:24.251Z,21.33
2019-05-07T20:17:56.360Z,23.07
2019-05-07T20:20:27.956Z,23.67
2019-05-07T20:22:59.839Z,23.10
2019-05-07T20:25:33.232Z,23.27
2019-05-07T20:28:05.603Z,26.73
2019-05-07T20:30:37.472Z,27.00
2019-05-07T20:33:09.532Z,27.97
2019-05-07T20:35:43.765Z,26.23
2019-05-07T20:38:16.596Z,27.80
2019-05-07T20:40:48.658Z,28.83
2019-05-07T20:43:23.088Z,27.17
2019-05-07T20:45:54.997Z,25.40
2019-05-07T20:48:26.768Z,25.70
2019-05-07T20:50:59.334Z,26.63
2019-05-07T20:54:02.310Z,24.80
2019-05-07T20:56:35.730Z,25.97
2019-05-07T20:59:08.313Z,27.13
2019-05-07T21:01:42.001Z,26.57
2019-05-07T21:04:13.488Z,26.87
2019-05-07T21:06:45.459Z,25.27
2019-05-07T21:09:18.267Z,24.07
2019-05-07T21:11:50.174Z,23.73
2019-05-07T21:14:22.818Z,25.33
2019-05-07T21:16:54.896Z,23.67
2019-05-07T21:19:26.536Z,24.00
2019-05-07T21:21:58.589Z,23.97
2019-05-07T21:24:30.365Z,22.80
2019-05-07T21:27:03.837Z,23.40
2019-05-07T21:29:35.768Z,23.20
2019-05-07T21:32:07.726Z,21.90
2019-05-07T21:34:39.414Z,21.53
2019-05-07T21:37:12.588Z,19.85
2019-05-07T21:39:44.511Z,19.75
2019-05-07T21:42:16.019Z,20.23
2019-05-07T21:44:49.271Z,19.70
2019-05-07T21:47:22.178Z,20.00
2019-05-07T21:49:55.267Z,20.30
2019-05-07T21:52:29.828Z,21.30
2019-05-07T21:55:12.779Z,19.90
2019-05-07T21:58:02.411Z,20.43
2019-05-07T22:00:46.284Z,19.40
2019-05-07T22:03:19.581Z,21.50
2019-05-07T22:05:52.005Z,20.80
2019-05-07T22:08:23.794Z,21.50
2019-05-07T22:10:55.855Z,21.00
2019-05-07T22:13:28.968Z,21.43
2019-05-07T22:16:02.544Z,21.97
2019-05-07T22:18:34.102Z,22.47
2019-05-07T22:21:05.779Z,20.97
2019-05-07T22:23:37.399Z,20.77
2019-05-07T22:26:20.018Z,21.30
2019-05-07T22:28:45.856Z,21.00
2019-05-07T22:31:36.798Z,21.15
2019-05-07T22:34:15.490Z,20.77
2019-05-07T22:36:48.362Z,21.13
2019-05-07T22:39:32.758Z,21.73
2019-05-07T22:42:06.157Z,21.03
2019-05-07T22:44:37.863Z,19.73
2019-05-07T22:47:22.898Z,20.53
2019-05-07T22:49:56.728Z,21.27
2019-05-07T22:52:28.729Z,20.50
2019-05-07T22:55:00.482Z,21.33
2019-05-07T22:57:52.618Z,22.03
2019-05-07T23:00:47.631Z,22.13
2019-05-07T23:03:20.132Z,24.07
2019-05-07T23:05:53.579Z,24.27
2019-05-07T23:08:25.286Z,24.60
2019-05-07T23:10:56.946Z,25.85
2019-05-07T23:13:28.954Z,26.07
2019-05-07T23:16:02.647Z,24.60
2019-05-07T23:18:35.075Z,25.30
2019-05-07T23:21:07.073Z,25.37
2019-05-07T23:23:38.781Z,26.43
2019-05-07T23:26:12.189Z,26.20
2019-05-07T23:28:44.072Z,27.70
2019-05-07T23:31:15.830Z,27.35
2019-05-07T23:33:47.962Z,27.17
2019-05-07T23:36:21.815Z,25.20
2019-05-07T23:38:53.013Z,26.23
2019-05-07T23:41:37.173Z,25.17
2019-05-07T23:44:28.005Z,27.23
2019-05-07T23:46:59.754Z,26.82
2019-05-07T23:49:32.229Z,27.33
2019-05-07T23:52:04.144Z,26.60
2019-05-07T23:54:36.280Z,26.95
2019-05-07T23:57:09.821Z,26.63
2019-05-07T23:59:42.168Z,26.80
